createdAt,value
2022-10-11T00:00:57.491Z,66.16
2022-10-11T00:03:25.317Z,66.04
2022-10-11T00:05:53.774Z,66.05
2022-10-11T00:08:21.470Z,66.28
2022-10-11T00:10:57.391Z,66.05
2022-10-11T00:13:26.397Z,66.04
2022-10-11T00:15:55.741Z,66.38
2022-10-11T00:18:23.577Z,66.10
2022-10-11T00:20:51.076Z,65.75
2022-10-11T00:23:18.561Z,65.70
2022-10-11T00:25:46.028Z,66.50
2022-10-11T00:28:13.528Z,66.81
2022-10-11T00:30:44.602Z,66.54
2022-10-11T00:33:12.071Z,66.93
2022-10-11T00:35:41.274Z,66.26
2022-10-11T00:38:08.756Z,66.02
2022-10-11T00:40:36.326Z,65.81
2022-10-11T00:43:03.845Z,65.88
2022-10-11T00:46:03.331Z,66.19
2022-10-11T00:48:39.087Z,66.01
2022-10-11T00:51:13.382Z,65.71
2022-10-11T00:53:41.557Z,65.85
2022-10-11T00:56:13.965Z,66.09
2022-10-11T00:58:42.648Z,66.08
2022-10-11T01:01:12.073Z,65.57
2022-10-11T01:03:41.678Z,65.86
2022-10-11T01:06:10.082Z,67.01
2022-10-11T01:08:38.832Z,66.62
2022-10-11T01:11:07.256Z,66.40
2022-10-11T01:13:47.056Z,66.06
2022-10-11T01:16:24.479Z,67.29
2022-10-11T01:19:03.974Z,66.79
2022-10-11T01:21:39.384Z,66.75
2022-10-11T01:24:24.633Z,66.46
2022-10-11T01:27:33.489Z,66.74
2022-10-11T01:30:14.649Z,66.88
2022-10-11T01:32:50.990Z,66.15
2022-10-11T01:35:25.751Z,66.75
2022-10-11T01:38:00.667Z,66.45
2022-10-11T01:40:32.733Z,67.01
2022-10-11T01:43:01.186Z,66.91
2022-10-11T01:45:31.427Z,66.44
2022-10-11T01:48:04.325Z,66.84
2022-10-11T01:50:37.879Z,66.27
2022-10-11T01:53:16.591Z,67.36
2022-10-11T01:55:51.586Z,67.05
2022-10-11T01:58:34.646Z,66.57
2022-10-11T02:01:16.051Z,66.14
2022-10-11T02:03:50.074Z,66.13
2022-10-11T02:06:24.161Z,66.09
2022-10-11T02:09:07.778Z,66.59
2022-10-11T02:11:37.269Z,66.75
2022-10-11T02:14:10.354Z,67.33
2022-10-11T02:16:46.241Z,67.41
2022-10-11T02:19:19.566Z,65.82
2022-10-11T02:21:52.331Z,66.02
2022-10-11T02:24:24.134Z,65.70
2022-10-11T02:26:55.012Z,65.73
2022-10-11T02:29:25.907Z,66.51
2022-10-11T02:31:57.722Z,67.00
2022-10-11T02:34:28.714Z,66.31
2022-10-11T02:37:03.379Z,67.29
2022-10-11T02:39:35.648Z,67.50
2022-10-11T02:42:07.629Z,66.32
2022-10-11T02:44:39.794Z,66.45
2022-10-11T02:47:09.404Z,66.23
2022-10-11T02:49:37.103Z,65.80
2022-10-11T02:52:07.185Z,66.39
2022-10-11T02:54:35.028Z,66.13
2022-10-11T02:57:02.713Z,66.51
2022-10-11T02:59:30.212Z,66.20
2022-10-11T03:01:57.820Z,67.32
2022-10-11T03:04:26.678Z,67.65
2022-10-11T03:06:54.155Z,67.36
2022-10-11T03:09:21.658Z,67.87
2022-10-11T03:11:49.330Z,66.68
2022-10-11T03:14:16.805Z,66.50
2022-10-11T03:16:44.298Z,67.22
2022-10-11T03:19:14.642Z,66.17
2022-10-11T03:21:47.210Z,68.19
2022-10-11T03:24:14.735Z,68.33
2022-10-11T03:26:42.252Z,68.00
2022-10-11T03:29:09.884Z,66.78
2022-10-11T03:31:37.426Z,66.53
2022-10-11T03:34:04.938Z,66.18
2022-10-11T03:36:32.411Z,67.01
2022-10-11T03:39:03.053Z,66.41
2022-10-11T03:41:30.696Z,65.96
2022-10-11T03:43:58.365Z,67.02
2022-10-11T03:46:25.993Z,66.66
2022-10-11T03:48:53.479Z,66.75
2022-10-11T03:51:21.017Z,66.84
2022-10-11T03:53:48.498Z,66.64
2022-10-11T03:56:17.340Z,66.17
2022-10-11T03:58:44.807Z,66.27
2022-10-11T04:01:12.456Z,66.15
2022-10-11T04:03:39.988Z,66.66
2022-10-11T04:06:08.496Z,66.24
2022-10-11T04:08:36.253Z,66.41
2022-10-11T04:11:04.029Z,65.79
2022-10-11T04:13:32.879Z,66.64
2022-10-11T04:16:00.518Z,66.31
2022-10-11T04:18:27.976Z,66.86
2022-10-11T04:20:55.461Z,66.81
2022-10-11T04:23:23.153Z,66.64
2022-10-11T04:25:50.650Z,66.41
2022-10-11T04:28:18.213Z,65.71
2022-10-11T04:30:47.144Z,66.34
2022-10-11T04:33:15.338Z,66.13
2022-10-11T04:35:42.835Z,65.73
2022-10-11T04:38:10.339Z,66.11
2022-10-11T04:40:37.911Z,66.36
2022-10-11T04:43:05.363Z,66.26
2022-10-11T04:45:33.067Z,65.46
2022-10-11T04:48:02.022Z,64.98
2022-10-11T04:50:29.515Z,65.28
2022-10-11T04:52:56.984Z,65.35
2022-10-11T04:55:24.440Z,65.82
2022-10-11T04:57:51.969Z,66.40
2022-10-11T05:00:19.662Z,65.61
2022-10-11T05:02:47.213Z,65.88
2022-10-11T05:05:17.501Z,65.94
2022-10-11T05:07:45.118Z,65.84
2022-10-11T05:10:12.661Z,66.30
2022-10-11T05:12:40.185Z,66.33
2022-10-11T05:15:09.177Z,66.53
2022-10-11T05:17:36.613Z,67.05
2022-10-11T05:20:04.274Z,66.79
2022-10-11T05:22:33.067Z,66.03
2022-10-11T05:25:00.514Z,65.96
2022-10-11T05:27:28.209Z,65.26
2022-10-11T05:29:55.745Z,65.53
2022-10-11T05:32:26.716Z,66.19
2022-10-11T05:34:55.502Z,66.08
2022-10-11T05:37:23.057Z,66.29
2022-10-11T05:39:52.093Z,66.71
2022-10-11T05:42:19.537Z,66.35
2022-10-11T05:44:47.617Z,66.30
2022-10-11T05:47:15.315Z,65.95
2022-10-11T05:49:42.865Z,66.13
2022-10-11T05:52:10.844Z,67.01
2022-10-11T05:54:38.387Z,66.61
2022-10-11T05:57:07.216Z,66.60
2022-10-11T05:59:36.259Z,66.30
2022-10-11T06:02:03.955Z,66.90
2022-10-11T06:04:31.706Z,66.10
2022-10-11T06:06:59.250Z,66.02
2022-10-11T06:09:26.868Z,66.68
2022-10-11T06:11:54.354Z,67.01
2022-10-11T06:14:23.333Z,67.99
2022-10-11T06:16:50.774Z,67.21
2022-10-11T06:19:18.253Z,67.12
2022-10-11T06:21:46.627Z,66.96
2022-10-11T06:24:14.185Z,67.12
2022-10-11T06:26:41.733Z,66.76
2022-10-11T06:29:09.794Z,66.70
2022-10-11T06:31:38.598Z,66.87
2022-10-11T06:34:06.096Z,66.80
2022-10-11T06:36:33.626Z,67.07
2022-10-11T06:39:01.661Z,66.46
2022-10-11T06:41:31.197Z,66.93
2022-10-11T06:43:58.970Z,66.87
2022-10-11T06:46:28.372Z,67.11
2022-10-11T06:48:57.280Z,67.22
2022-10-11T06:51:25.527Z,66.66
2022-10-11T06:53:56.612Z,68.43
2022-10-11T06:56:24.973Z,68.44
2022-10-11T06:58:54.170Z,68.10
2022-10-11T07:01:23.542Z,67.78
2022-10-11T07:03:52.594Z,67.22
2022-10-11T07:06:23.153Z,66.57
2022-10-11T07:08:50.880Z,66.43
2022-10-11T07:11:20.584Z,67.01
2022-10-11T07:13:51.822Z,66.41
2022-10-11T07:16:20.739Z,66.35
2022-10-11T07:18:49.006Z,67.40
2022-10-11T07:21:17.098Z,66.72
2022-10-11T07:23:45.942Z,66.11
2022-10-11T07:26:13.771Z,65.92
2022-10-11T07:28:41.834Z,66.69
2022-10-11T07:31:11.518Z,68.16
2022-10-11T07:33:39.002Z,66.95
2022-10-11T07:36:08.468Z,68.44
2022-10-11T07:38:36.768Z,68.29
2022-10-11T07:41:07.723Z,68.09
2022-10-11T07:43:35.235Z,68.27
2022-10-11T07:46:04.732Z,68.79
2022-10-11T07:48:33.473Z,68.14
2022-10-11T07:51:06.879Z,67.77
2022-10-11T07:53:39.200Z,68.05
2022-10-11T07:56:09.173Z,67.21
2022-10-11T07:58:36.857Z,67.93
2022-10-11T08:01:04.656Z,67.81
2022-10-11T08:03:32.243Z,67.33
2022-10-11T08:06:03.882Z,67.00
2022-10-11T08:08:32.028Z,67.11
2022-10-11T08:11:00.494Z,66.23
2022-10-11T08:13:29.366Z,65.93
2022-10-11T08:15:57.629Z,65.63
2022-10-11T08:18:25.629Z,64.76
2022-10-11T08:20:53.451Z,64.37
2022-10-11T08:23:21.224Z,63.84
2022-10-11T08:25:49.163Z,64.24
2022-10-11T08:28:17.818Z,63.33
2022-10-11T08:30:50.909Z,64.95
2022-10-11T08:33:18.926Z,65.90
2022-10-11T08:35:46.418Z,65.36
2022-10-11T08:38:14.088Z,66.24
2022-10-11T08:40:47.032Z,65.62
2022-10-11T08:43:23.279Z,66.00
2022-10-11T08:45:56.934Z,65.85
2022-10-11T08:48:33.477Z,65.77
2022-10-11T08:51:01.835Z,64.96
2022-10-11T08:53:41.960Z,63.99
2022-10-11T08:56:13.172Z,64.93
2022-10-11T08:58:46.557Z,64.01
2022-10-11T09:01:19.585Z,63.65
2022-10-11T09:03:48.989Z,64.16
2022-10-11T09:06:25.036Z,64.22
2022-10-11T09:09:08.499Z,64.88
2022-10-11T09:11:47.856Z,64.32
2022-10-11T09:14:36.500Z,63.57
2022-10-11T09:17:11.985Z,64.03
2022-10-11T09:19:59.383Z,63.87
2022-10-11T09:22:39.260Z,63.21
2022-10-11T09:25:19.607Z,62.45
2022-10-11T09:28:02.923Z,61.82
2022-10-11T09:30:33.009Z,61.95
2022-10-11T09:33:11.765Z,61.25
2022-10-11T09:35:43.540Z,61.04
2022-10-11T09:38:19.405Z,60.94
2022-10-11T09:40:59.816Z,60.45
2022-10-11T09:43:27.704Z,60.02
2022-10-11T09:45:55.216Z,58.86
2022-10-11T09:48:28.311Z,58.99
2022-10-11T09:51:03.546Z,58.76
2022-10-11T09:53:56.533Z,58.97
2022-10-11T09:56:25.820Z,58.31
2022-10-11T09:59:08.978Z,58.84
2022-10-11T10:01:36.751Z,58.32
2022-10-11T10:04:09.777Z,57.45
2022-10-11T10:06:38.447Z,56.19
2022-10-11T10:09:27.072Z,56.20
2022-10-11T10:11:55.662Z,55.62
2022-10-11T10:14:26.434Z,56.00
2022-10-11T10:17:03.723Z,55.55
2022-10-11T10:19:44.702Z,55.06
2022-10-11T10:22:19.855Z,54.41
2022-10-11T10:24:48.911Z,54.05
2022-10-11T10:27:20.900Z,53.35
2022-10-11T10:30:13.150Z,54.21
2022-10-11T10:32:49.750Z,53.40
2022-10-11T10:35:28.247Z,53.21
2022-10-11T10:38:06.258Z,53.31
2022-10-11T10:40:40.265Z,52.26
2022-10-11T10:43:15.511Z,51.78
2022-10-11T10:46:04.874Z,49.63
2022-10-11T10:49:12.030Z,51.79
2022-10-11T10:51:39.713Z,49.69
2022-10-11T10:54:18.585Z,48.63
2022-10-11T10:56:53.020Z,49.97
2022-10-11T10:59:36.712Z,51.36
2022-10-11T11:02:38.932Z,51.30
2022-10-11T11:05:13.728Z,49.11
2022-10-11T11:07:46.970Z,49.15
2022-10-11T11:10:20.171Z,49.34
2022-10-11T11:12:55.128Z,48.08
2022-10-11T11:15:32.584Z,49.67
2022-10-11T11:18:17.153Z,47.58
2022-10-11T11:20:56.001Z,48.14
2022-10-11T11:23:33.774Z,48.42
2022-10-11T11:26:11.461Z,49.74
2022-10-11T11:28:50.542Z,47.68
2022-10-11T11:31:32.692Z,48.54
2022-10-11T11:34:06.109Z,49.53
2022-10-11T11:36:40.367Z,48.60
2022-10-11T11:39:17.791Z,49.39
2022-10-11T11:41:51.508Z,47.99
2022-10-11T11:44:27.256Z,48.56
2022-10-11T11:47:00.218Z,47.95
2022-10-11T11:49:32.831Z,47.58
2022-10-11T11:52:01.418Z,48.21
2022-10-11T11:54:43.349Z,47.86
2022-10-11T11:57:24.325Z,47.38
2022-10-11T11:59:57.875Z,47.12
2022-10-11T12:02:38.786Z,46.78
2022-10-11T12:05:07.783Z,46.38
2022-10-11T12:07:49.954Z,48.07
2022-10-11T12:10:27.140Z,46.80
2022-10-11T12:13:07.731Z,44.51
2022-10-11T12:15:35.588Z,45.63
2022-10-11T12:18:21.681Z,46.43
2022-10-11T12:21:03.443Z,45.67
2022-10-11T12:23:46.532Z,45.58
2022-10-11T12:26:37.969Z,43.43
2022-10-11T12:29:28.697Z,43.05
2022-10-11T12:32:30.760Z,43.18
2022-10-11T12:35:31.938Z,44.52
2022-10-11T12:38:07.145Z,45.33
2022-10-11T12:40:41.761Z,42.46
2022-10-11T12:43:27.306Z,43.70
2022-10-11T12:45:54.938Z,42.76
2022-10-11T12:48:40.641Z,42.45
2022-10-11T12:51:26.589Z,43.46
2022-10-11T12:54:31.009Z,43.75
2022-10-11T12:57:23.978Z,43.43
2022-10-11T12:59:52.974Z,43.64
2022-10-11T13:02:28.896Z,42.73
2022-10-11T13:05:07.697Z,44.02
2022-10-11T13:07:36.591Z,44.00
2022-10-11T13:10:06.593Z,43.54
2022-10-11T13:12:41.232Z,42.61
2022-10-11T13:15:15.762Z,43.78
2022-10-11T13:17:44.070Z,43.66
2022-10-11T13:20:19.162Z,41.54
2022-10-11T13:22:48.174Z,42.56
2022-10-11T13:25:18.568Z,40.25
2022-10-11T13:27:46.584Z,42.35
2022-10-11T13:30:19.538Z,41.65
2022-10-11T13:32:47.598Z,39.89
2022-10-11T13:35:22.336Z,42.73
2022-10-11T13:37:52.377Z,43.13
2022-10-11T13:40:22.064Z,42.96
2022-10-11T13:42:50.971Z,41.22
2022-10-11T13:45:21.964Z,41.62
2022-10-11T13:47:50.960Z,41.97
2022-10-11T13:50:30.258Z,42.22
2022-10-11T13:53:00.542Z,40.57
2022-10-11T13:55:34.669Z,40.96
2022-10-11T13:58:04.325Z,42.37
2022-10-11T14:00:38.961Z,41.80
2022-10-11T14:03:18.593Z,41.32
2022-10-11T14:05:54.814Z,41.67
2022-10-11T14:08:26.037Z,42.11
2022-10-11T14:10:57.868Z,41.50
2022-10-11T14:13:31.230Z,41.78
2022-10-11T14:16:06.554Z,42.38
2022-10-11T14:18:41.182Z,40.66
2022-10-11T14:21:31.292Z,41.11
2022-10-11T14:24:00.559Z,42.15
2022-10-11T14:26:33.917Z,41.83
2022-10-11T14:29:03.161Z,41.39
2022-10-11T14:31:32.289Z,41.12
2022-10-11T14:33:59.969Z,41.54
2022-10-11T14:36:28.048Z,42.55
2022-10-11T14:38:55.683Z,41.97
2022-10-11T14:41:23.170Z,41.92
2022-10-11T14:43:50.697Z,41.64
2022-10-11T14:46:23.947Z,42.19
2022-10-11T14:48:56.330Z,41.65
2022-10-11T14:51:28.468Z,40.87
2022-10-11T14:53:55.930Z,42.09
2022-10-11T14:56:23.417Z,41.46
2022-10-11T14:58:51.331Z,41.40
2022-10-11T15:01:18.914Z,42.15
2022-10-11T15:03:46.488Z,42.58
2022-10-11T15:06:19.154Z,42.96
2022-10-11T15:08:47.117Z,42.81
2022-10-11T15:11:17.040Z,43.04
2022-10-11T15:13:44.708Z,42.49
2022-10-11T15:16:14.825Z,42.81
2022-10-11T15:18:42.625Z,42.62
2022-10-11T15:21:14.010Z,42.92
2022-10-11T15:23:42.853Z,41.91
2022-10-11T15:26:14.154Z,42.35
2022-10-11T15:28:42.126Z,42.28
2022-10-11T15:31:09.839Z,41.89
2022-10-11T15:33:37.547Z,43.83
2022-10-11T15:36:06.515Z,41.82
2022-10-11T15:38:34.485Z,42.10
2022-10-11T15:41:03.488Z,42.48
2022-10-11T15:43:31.157Z,41.86
2022-10-11T15:45:59.256Z,43.53
2022-10-11T15:48:27.737Z,43.85
2022-10-11T15:50:55.535Z,43.54
2022-10-11T15:53:25.696Z,43.59
2022-10-11T15:55:54.657Z,43.70
2022-10-11T15:58:25.791Z,44.46
2022-10-11T16:00:55.177Z,44.60
2022-10-11T16:03:24.933Z,45.66
2022-10-11T16:05:53.421Z,46.76
2022-10-11T16:08:21.292Z,46.88
2022-10-11T16:10:48.745Z,47.29
2022-10-11T16:13:16.877Z,48.13
2022-10-11T16:15:46.717Z,47.52
2022-10-11T16:18:16.129Z,48.10
2022-10-11T16:20:47.243Z,47.77
2022-10-11T16:23:15.733Z,49.48
2022-10-11T16:25:43.243Z,49.00
2022-10-11T16:28:11.573Z,49.53
2022-10-11T16:30:40.677Z,50.39
2022-10-11T16:33:09.538Z,49.99
2022-10-11T16:35:37.038Z,50.83
2022-10-11T16:38:04.703Z,50.89
2022-10-11T16:40:32.202Z,51.28
2022-10-11T16:43:07.420Z,51.31
2022-10-11T16:45:36.185Z,52.28
2022-10-11T16:48:04.091Z,51.63
2022-10-11T16:50:38.394Z,51.87
2022-10-11T16:53:07.234Z,51.69
2022-10-11T16:55:34.728Z,52.25
2022-10-11T16:58:02.233Z,52.20
2022-10-11T17:00:29.743Z,51.77
2022-10-11T17:02:57.257Z,51.73
2022-10-11T17:05:24.954Z,52.53
2022-10-11T17:07:53.769Z,53.13
2022-10-11T17:10:39.018Z,52.43
2022-10-11T17:13:06.682Z,53.26
2022-10-11T17:15:35.894Z,52.49
2022-10-11T17:18:03.385Z,52.49
2022-10-11T17:20:30.874Z,53.14
2022-10-11T17:23:00.063Z,53.04
2022-10-11T17:25:28.135Z,54.07
2022-10-11T17:27:56.279Z,53.40
2022-10-11T17:30:23.907Z,53.19
2022-10-11T17:32:51.905Z,53.86
2022-10-11T17:35:19.499Z,53.74
2022-10-11T17:37:46.975Z,53.97
2022-10-11T17:40:15.855Z,54.05
2022-10-11T17:42:43.346Z,54.52
2022-10-11T17:45:11.243Z,54.08
2022-10-11T17:47:39.807Z,54.40
2022-10-11T17:50:08.148Z,54.71
2022-10-11T17:52:35.652Z,54.67
2022-10-11T17:55:03.736Z,54.24
2022-10-11T17:57:32.560Z,54.55
2022-10-11T18:00:01.869Z,55.00
2022-10-11T18:02:29.388Z,54.14
2022-10-11T18:04:57.062Z,53.95
2022-10-11T18:07:24.582Z,54.88
2022-10-11T18:09:52.202Z,54.95
2022-10-11T18:12:19.684Z,55.71
2022-10-11T18:14:48.571Z,54.75
2022-10-11T18:17:16.050Z,55.59
2022-10-11T18:19:43.503Z,55.82
2022-10-11T18:22:11.017Z,55.50
2022-10-11T18:24:39.258Z,56.88
2022-10-11T18:27:06.713Z,56.02
2022-10-11T18:29:34.226Z,56.26
2022-10-11T18:32:03.045Z,57.08
2022-10-11T18:34:30.511Z,57.54
2022-10-11T18:36:58.003Z,57.64
2022-10-11T18:39:25.621Z,58.17
2022-10-11T18:41:53.497Z,57.77
2022-10-11T18:44:21.033Z,58.85
2022-10-11T18:46:50.160Z,57.54
2022-10-11T18:49:19.035Z,58.60
2022-10-11T18:51:47.824Z,58.19
2022-10-11T18:54:20.036Z,57.88
2022-10-11T18:56:48.739Z,57.65
2022-10-11T18:59:16.263Z,56.86
2022-10-11T19:01:45.472Z,57.29
2022-10-11T19:04:16.635Z,57.10
2022-10-11T19:06:48.296Z,57.56
2022-10-11T19:09:21.267Z,56.78
2022-10-11T19:11:49.593Z,57.28
2022-10-11T19:14:20.988Z,56.95
2022-10-11T19:16:51.271Z,56.97
2022-10-11T19:19:20.720Z,56.55
2022-10-11T19:21:49.615Z,57.67
2022-10-11T19:24:17.825Z,57.02
2022-10-11T19:26:45.479Z,57.16
2022-10-11T19:29:15.258Z,57.08
2022-10-11T19:31:44.464Z,57.97
2022-10-11T19:34:12.833Z,59.30
2022-10-11T19:36:42.528Z,57.89
2022-10-11T19:39:12.758Z,57.77
2022-10-11T19:41:40.316Z,57.65
2022-10-11T19:44:08.057Z,57.53
2022-10-11T19:46:50.903Z,57.50
2022-10-11T19:49:21.427Z,58.51
2022-10-11T19:51:48.904Z,57.43
2022-10-11T19:54:18.081Z,58.15
2022-10-11T19:56:45.705Z,57.90
2022-10-11T19:59:14.386Z,57.38
2022-10-11T20:01:45.510Z,57.19
2022-10-11T20:04:33.558Z,57.02
2022-10-11T20:07:03.155Z,56.75
2022-10-11T20:09:31.998Z,57.50
2022-10-11T20:11:59.880Z,57.27
2022-10-11T20:14:27.650Z,57.26
2022-10-11T20:16:55.136Z,56.87
2022-10-11T20:19:27.767Z,58.05
2022-10-11T20:21:57.672Z,58.76
2022-10-11T20:24:27.319Z,59.60
2022-10-11T20:26:56.435Z,58.73
2022-10-11T20:29:25.238Z,58.18
2022-10-11T20:31:52.787Z,57.48
2022-10-11T20:34:20.282Z,58.15
2022-10-11T20:36:49.232Z,56.79
2022-10-11T20:39:17.717Z,59.01
2022-10-11T20:41:45.224Z,58.47
2022-10-11T20:44:15.967Z,57.34
2022-10-11T20:46:43.434Z,57.71
2022-10-11T20:49:12.223Z,58.47
2022-10-11T20:51:41.410Z,58.63
2022-10-11T20:54:09.317Z,58.32
2022-10-11T20:56:38.192Z,57.77
2022-10-11T20:59:06.124Z,58.43
2022-10-11T21:01:37.580Z,58.54
2022-10-11T21:04:06.145Z,58.34
2022-10-11T21:06:35.138Z,57.42
2022-10-11T21:09:02.663Z,58.34
2022-10-11T21:11:32.177Z,57.66
2022-10-11T21:14:01.650Z,58.97
2022-10-11T21:16:29.783Z,58.74
2022-10-11T21:19:00.038Z,59.68
2022-10-11T21:21:29.511Z,59.54
2022-10-11T21:23:58.954Z,60.23
2022-10-11T21:26:27.262Z,60.66
2022-10-11T21:28:54.821Z,60.51
2022-10-11T21:31:23.432Z,61.44
2022-10-11T21:33:51.340Z,61.63
2022-10-11T21:36:21.697Z,61.43
2022-10-11T21:38:49.996Z,61.68
2022-10-11T21:41:19.443Z,62.02
2022-10-11T21:43:47.785Z,62.19
2022-10-11T21:46:17.963Z,61.75
2022-10-11T21:48:46.557Z,62.13
2022-10-11T21:51:15.841Z,61.80
2022-10-11T21:53:45.713Z,61.91
2022-10-11T21:56:13.216Z,61.40
2022-10-11T21:58:40.803Z,61.88
2022-10-11T22:01:08.428Z,61.33
2022-10-11T22:03:35.954Z,62.12
2022-10-11T22:06:04.949Z,62.81
2022-10-11T22:08:33.071Z,63.11
2022-10-11T22:11:02.741Z,63.79
2022-10-11T22:13:32.509Z,63.39
2022-10-11T22:16:03.452Z,63.62
2022-10-11T22:18:33.633Z,62.67
2022-10-11T22:21:05.507Z,63.61
2022-10-11T22:23:33.002Z,63.92
2022-10-11T22:26:05.916Z,63.50
2022-10-11T22:28:33.644Z,63.17
2022-10-11T22:31:01.394Z,62.07
2022-10-11T22:33:28.875Z,62.47
2022-10-11T22:35:56.875Z,62.91
2022-10-11T22:38:24.415Z,63.06
2022-10-11T22:40:52.144Z,62.51
2022-10-11T22:43:21.468Z,62.73
2022-10-11T22:45:48.926Z,62.14
2022-10-11T22:48:16.615Z,61.90
2022-10-11T22:50:44.283Z,62.87
2022-10-11T22:53:13.521Z,62.56
2022-10-11T22:55:41.367Z,62.72
2022-10-11T22:58:08.967Z,62.95
2022-10-11T23:00:37.864Z,63.04
2022-10-11T23:03:06.989Z,63.02
2022-10-11T23:05:34.525Z,62.84
2022-10-11T23:08:02.049Z,62.88
2022-10-11T23:10:29.511Z,62.94
2022-10-11T23:12:56.952Z,62.71
2022-10-11T23:15:24.540Z,63.19
2022-10-11T23:17:53.347Z,62.83
2022-10-11T23:20:20.804Z,63.07
2022-10-11T23:22:48.248Z,62.77
2022-10-11T23:25:15.757Z,63.25
2022-10-11T23:27:43.222Z,63.48
2022-10-11T23:30:12.514Z,62.71
2022-10-11T23:32:39.984Z,62.66
2022-10-11T23:35:09.530Z,62.36
2022-10-11T23:37:37.310Z,63.08
2022-10-11T23:40:05.954Z,63.09
2022-10-11T23:42:33.404Z,62.80
2022-10-11T23:45:00.842Z,63.42
2022-10-11T23:47:28.313Z,62.82
2022-10-11T23:49:55.768Z,62.67
2022-10-11T23:52:24.608Z,63.01
2022-10-11T23:54:52.078Z,63.25
2022-10-11T23:57:19.569Z,64.10
2022-10-11T23:59:47.011Z,64.02
